Terminal Aerodrome Forecast
Issued by NWS Wichita, KS

Home | Current Version | Previous Version | Graphics & Text | Print | Product List | Glossary On
Versions: 1 2 3 4 5 6 7 8 9 10 11 12
370
FTUS43 KICT 241726
TAFICT
TAF
KICT 241726Z 2418/2518 22010KT P6SM SCT250
     FM242300 29008KT P6SM SCT250
     FM250200 35009KT P6SM SCT250
     FM251300 01005KT P6SM SKC=

USA.gov is the U.S. government's official web portal to all federal, state and local government web resources and services.